Time;durP1;ratioP1;P1;durP2;ratioP2;P2;SDS_P1;SDS_P2;PMS_P1;PMS_P2;Temp;Humidity;BMP_temperature;BMP_pressure;BME280_temperature;BME280_humidity;BME280_pressure;Samples;Min_cycle;Max_cycle;Signal;HPM_P1;HPM_P2
2022/12/22 03:26:11;;;;;;;192.00;134.05;;;;;;;;;;4980635;28;20095;-80
2022/12/22 03:28:36;;;;;;;205.50;143.95;;;;;;;;;;4979824;28;20034;-79
2022/12/22 03:31:03;;;;;;;199.02;141.35;;;;;;;;;;4980147;28;20049;-81
2022/12/22 03:33:29;;;;;;;193.20;134.57;;;;;;;;;;4979835;28;20041;-78
2022/12/22 03:35:55;;;;;;;259.33;185.02;;;;;;;;;;4980180;28;20018;-79
2022/12/22 03:38:20;;;;;;;241.88;165.57;;;;;;;;;;4978514;28;20030;-82
2022/12/22 03:40:46;;;;;;;209.45;147.57;;;;;;;;;;4979451;28;20361;-80
2022/12/22 03:48:39;;;;;;;218.98;151.48;;;;;;;;;;4980448;28;20739;-80
2022/12/22 03:51:05;;;;;;;178.30;123.40;;;;;;;;;;4976608;28;20026;-79
2022/12/22 03:53:31;;;;;;;164.02;109.22;;;;;;;;;;4977614;28;20065;-78
2022/12/22 03:55:56;;;;;;;209.13;136.90;;;;;;;;;;4978162;28;20902;-85
2022/12/22 03:58:21;;;;;;;262.95;179.20;;;;;;;;;;4978744;28;20133;-79
2022/12/22 04:00:46;;;;;;;240.63;163.88;;;;;;;;;;4978020;28;20026;-79
2022/12/22 04:03:12;;;;;;;222.40;154.60;;;;;;;;;;4975182;28;20126;-80
2022/12/22 04:05:38;;;;;;;239.80;169.20;;;;;;;;;;4973509;28;20450;-78
2022/12/22 04:08:03;;;;;;;216.63;156.38;;;;;;;;;;4979534;28;20072;-78
2022/12/22 04:13:12;;;;;;;246.43;181.60;;;;;;;;;;4979491;28;20126;-78
2022/12/22 04:15:38;;;;;;;234.07;168.93;;;;;;;;;;4974831;28;20453;-78
2022/12/22 04:18:03;;;;;;;289.95;207.30;;;;;;;;;;4974955;28;20026;-79
2022/12/22 04:20:28;;;;;;;268.70;203.60;;;;;;;;;;4978829;28;20034;-79
2022/12/22 04:22:54;;;;;;;263.20;189.85;;;;;;;;;;4978569;28;20044;-81
2022/12/22 04:25:20;;;;;;;273.35;195.60;;;;;;;;;;4980311;28;20818;-78
2022/12/22 04:27:45;;;;;;;287.35;196.20;;;;;;;;;;4979469;28;20030;-78
2022/12/22 04:30:11;;;;;;;277.77;194.15;;;;;;;;;;4979304;28;20023;-79
2022/12/22 04:32:36;;;;;;;203.20;142.55;;;;;;;;;;4979373;28;20368;-79
2022/12/22 04:35:02;;;;;;;157.60;112.93;;;;;;;;;;4965912;28;20426;-78
2022/12/22 04:37:27;;;;;;;333.88;241.05;;;;;;;;;;4973637;28;20041;-78
2022/12/22 04:39:52;;;;;;;281.23;205.57;;;;;;;;;;4977643;28;20022;-79
2022/12/22 04:42:18;;;;;;;265.95;189.18;;;;;;;;;;4976083;28;20072;-83
2022/12/22 04:44:43;;;;;;;245.57;182.27;;;;;;;;;;4969305;28;20053;-79
2022/12/22 04:47:08;;;;;;;213.10;160.15;;;;;;;;;;4978956;28;20042;-79
2022/12/22 04:49:34;;;;;;;234.70;176.07;;;;;;;;;;4979619;28;20026;-79
2022/12/22 04:51:59;;;;;;;216.55;151.10;;;;;;;;;;4982176;28;20483;-79
2022/12/22 04:54:24;;;;;;;212.52;155.63;;;;;;;;;;4979594;28;20062;-78
2022/12/22 04:56:50;;;;;;;253.88;179.63;;;;;;;;;;4975086;28;20026;-81
2022/12/22 04:59:15;;;;;;;315.23;210.80;;;;;;;;;;4971538;28;20464;-79
2022/12/22 05:01:40;;;;;;;288.10;194.93;;;;;;;;;;4971209;28;20026;-81
2022/12/22 05:04:06;;;;;;;229.25;159.15;;;;;;;;;;4971764;28;20018;-80
2022/12/22 05:06:31;;;;;;;135.75;98.25;;;;;;;;;;4982247;28;20026;-79
2022/12/22 05:08:56;;;;;;;227.45;152.50;;;;;;;;;;4980523;28;20033;-79
2022/12/22 05:11:22;;;;;;;211.15;139.30;;;;;;;;;;4974490;28;20035;-80
2022/12/22 05:13:47;;;;;;;208.75;142.68;;;;;;;;;;4966712;28;20054;-80
2022/12/22 05:16:13;;;;;;;198.23;138.20;;;;;;;;;;4966469;28;20441;-79
2022/12/22 05:18:39;;;;;;;246.18;171.23;;;;;;;;;;4971206;28;20031;-80
2022/12/22 05:21:06;;;;;;;230.38;152.40;;;;;;;;;;4981789;28;20026;-79
2022/12/22 05:23:31;;;;;;;227.57;155.57;;;;;;;;;;4978911;28;20038;-79
2022/12/22 05:25:56;;;;;;;154.20;106.60;;;;;;;;;;4981085;28;20030;-79
2022/12/22 05:28:22;;;;;;;156.88;111.18;;;;;;;;;;4969795;28;20030;-72
2022/12/22 05:30:47;;;;;;;184.43;130.38;;;;;;;;;;4982261;28;20592;-73
2022/12/22 05:33:12;;;;;;;206.63;145.80;;;;;;;;;;4979309;28;20030;-72
2022/12/22 05:35:38;;;;;;;477.52;354.80;;;;;;;;;;4980218;28;20053;-72
2022/12/22 05:38:03;;;;;;;308.42;214.35;;;;;;;;;;4981712;28;20049;-71
2022/12/22 05:41:38;;;;;;;238.80;174.95;;;;;;;;;;5097475;27;20463;-72
2022/12/22 05:44:03;;;;;;;207.73;142.98;;;;;;;;;;5091339;28;20027;-74
2022/12/22 05:46:28;;;;;;;234.20;160.60;;;;;;;;;;5083475;28;20077;-73
2022/12/22 05:48:54;;;;;;;305.58;217.52;;;;;;;;;;5084397;28;20036;-72
2022/12/22 05:51:19;;;;;;;381.73;278.48;;;;;;;;;;5087565;28;20905;-74
2022/12/22 05:53:44;;;;;;;353.08;253.10;;;;;;;;;;5094057;28;20055;-74
2022/12/22 05:56:09;;;;;;;361.13;250.32;;;;;;;;;;5041406;28;20045;-73
2022/12/22 05:58:36;;;;;;;402.70;290.52;;;;;;;;;;5035359;28;20451;-75
2022/12/22 06:01:02;;;;;;;412.00;293.38;;;;;;;;;;5036953;28;20060;-75
2022/12/22 06:03:27;;;;;;;337.80;249.32;;;;;;;;;;5035003;28;20504;-74
2022/12/22 06:05:53;;;;;;;319.27;222.73;;;;;;;;;;5025997;28;20048;-74
2022/12/22 06:08:19;;;;;;;324.00;220.07;;;;;;;;;;5024509;28;20025;-74
2022/12/22 06:10:44;;;;;;;329.25;224.25;;;;;;;;;;5036753;28;20025;-73
2022/12/22 06:13:09;;;;;;;290.25;204.60;;;;;;;;;;5036931;28;20415;-74
2022/12/22 06:15:34;;;;;;;351.55;244.05;;;;;;;;;;5036945;28;20017;-74
2022/12/22 06:18:00;;;;;;;342.85;235.55;;;;;;;;;;5034889;28;20033;-76
2022/12/22 06:20:25;;;;;;;501.98;359.73;;;;;;;;;;5052116;28;20407;-76
2022/12/22 06:22:50;;;;;;;445.33;314.95;;;;;;;;;;5027382;28;20025;-76
2022/12/22 06:25:16;;;;;;;407.27;275.02;;;;;;;;;;5035976;28;20128;-78
2022/12/22 06:27:41;;;;;;;421.15;285.15;;;;;;;;;;5034726;28;20499;-78
2022/12/22 06:30:07;;;;;;;416.23;296.13;;;;;;;;;;5037324;28;20025;-77
2022/12/22 06:32:35;;;;;;;448.75;323.77;;;;;;;;;;5038732;28;20064;-76
2022/12/22 06:35:00;;;;;;;472.67;335.30;;;;;;;;;;5035909;28;20033;-77
2022/12/22 06:37:25;;;;;;;482.42;370.83;;;;;;;;;;5036858;28;20036;-77
2022/12/22 06:39:50;;;;;;;462.50;351.00;;;;;;;;;;5035982;28;20449;-76
2022/12/22 06:45:00;;;;;;;802.08;603.58;;;;;;;;;;5033942;28;20443;-75
2022/12/22 06:47:25;;;;;;;568.25;419.67;;;;;;;;;;5036751;28;20029;-76
2022/12/22 06:49:51;;;;;;;550.30;410.00;;;;;;;;;;5034173;28;20040;-74
2022/12/22 06:52:16;;;;;;;479.35;357.90;;;;;;;;;;5026981;28;20022;-75
2022/12/22 06:54:41;;;;;;;554.80;432.63;;;;;;;;;;5024985;28;20029;-74
2022/12/22 06:57:07;;;;;;;512.05;402.40;;;;;;;;;;5024052;28;20430;-76
2022/12/22 06:59:32;;;;;;;546.75;441.95;;;;;;;;;;5020451;28;20365;-73
2022/12/22 07:01:57;;;;;;;531.15;395.63;;;;;;;;;;5019394;28;20116;-73
2022/12/22 07:04:23;;;;;;;514.50;376.42;;;;;;;;;;5005797;28;20037;-76
2022/12/22 07:06:48;;;;;;;453.67;321.05;;;;;;;;;;5009070;28;20052;-74
2022/12/22 07:09:13;;;;;;;417.63;302.75;;;;;;;;;;5005883;28;20083;-73
2022/12/22 07:11:39;;;;;;;419.63;311.73;;;;;;;;;;5004627;28;20975;-73
2022/12/22 07:14:04;;;;;;;408.35;293.10;;;;;;;;;;5015096;28;20067;-72
2022/12/22 07:16:29;;;;;;;257.38;197.65;;;;;;;;;;5018665;28;20587;-72
2022/12/22 07:18:54;;;;;;;204.18;165.50;;;;;;;;;;5023673;28;20022;-72
2022/12/22 07:21:20;;;;;;;226.25;184.90;;;;;;;;;;5023282;28;20033;-73
2022/12/22 07:23:45;;;;;;;393.80;295.60;;;;;;;;;;5024231;28;20034;-71
2022/12/22 07:26:11;;;;;;;440.15;343.67;;;;;;;;;;5060112;28;20499;-73
2022/12/22 07:28:37;;;;;;;262.42;211.30;;;;;;;;;;5053678;28;20019;-73
2022/12/22 07:31:03;;;;;;;337.65;260.85;;;;;;;;;;5055133;28;21198;-71
2022/12/22 07:33:28;;;;;;;556.83;415.00;;;;;;;;;;5057664;28;20637;-72
2022/12/22 07:36:20;;;;;;;261.83;210.77;;;;;;;;;;5058981;28;20376;-71
2022/12/22 07:38:47;;;;;;;263.92;217.20;;;;;;;;;;5054322;28;20041;-74
2022/12/22 07:43:58;;;;;;;372.42;286.52;;;;;;;;;;5058793;28;20081;-73
2022/12/22 07:46:24;;;;;;;330.80;258.05;;;;;;;;;;5058293;28;20020;-72
2022/12/22 07:51:34;;;;;;;297.08;254.10;;;;;;;;;;5052461;28;20047;-72
2022/12/22 07:54:00;;;;;;;333.42;284.02;;;;;;;;;;5054567;28;20059;-71
2022/12/22 07:56:25;;;;;;;343.20;281.80;;;;;;;;;;5059943;28;20060;-71
2022/12/22 07:58:50;;;;;;;376.50;302.15;;;;;;;;;;5055809;28;20099;-72
2022/12/22 08:01:15;;;;;;;420.10;337.83;;;;;;;;;;5054225;28;20364;-74
2022/12/22 08:03:41;;;;;;;433.65;348.15;;;;;;;;;;5058199;28;20028;-72
2022/12/22 08:06:06;;;;;;;434.70;350.13;;;;;;;;;;5055443;28;20047;-72
2022/12/22 08:08:32;;;;;;;338.83;297.08;;;;;;;;;;5055400;28;20375;-73
2022/12/22 08:11:00;;;;;;;328.42;286.33;;;;;;;;;;5056855;28;20072;-71
2022/12/22 08:13:25;;;;;;;328.92;282.00;;;;;;;;;;5057092;28;20016;-73
2022/12/22 08:15:50;;;;;;;382.17;303.02;;;;;;;;;;5053746;28;20031;-72
2022/12/22 08:18:16;;;;;;;346.25;284.70;;;;;;;;;;5057142;28;20517;-74
2022/12/22 08:20:47;;;;;;;311.25;265.80;;;;;;;;;;5053989;28;20052;-73
2022/12/22 08:23:12;;;;;;;241.55;208.82;;;;;;;;;;5056450;28;20502;-71
2022/12/22 08:25:38;;;;;;;205.30;168.80;;;;;;;;;;5053972;28;20107;-71
2022/12/22 08:28:04;;;;;;;190.73;151.82;;;;;;;;;;5057352;28;20030;-71
2022/12/22 08:30:32;;;;;;;307.38;230.25;;;;;;;;;;5053945;28;20370;-72
2022/12/22 08:32:57;;;;;;;410.55;306.75;;;;;;;;;;5056642;28;20036;-75
2022/12/22 08:35:22;;;;;;;444.35;345.25;;;;;;;;;;5056895;28;20116;-71
2022/12/22 08:37:48;;;;;;;490.33;398.23;;;;;;;;;;5055683;28;20082;-73
2022/12/22 08:40:16;;;;;;;461.58;359.55;;;;;;;;;;5059813;28;20048;-71
2022/12/22 08:42:42;;;;;;;454.88;345.33;;;;;;;;;;5040214;28;20367;-72
2022/12/22 08:45:10;;;;;;;420.75;325.17;;;;;;;;;;5055178;28;20028;-71
2022/12/22 08:47:35;;;;;;;451.83;353.10;;;;;;;;;;5059220;28;20438;-71
2022/12/22 08:50:00;;;;;;;400.88;303.00;;;;;;;;;;5033492;28;20029;-71
2022/12/22 08:52:26;;;;;;;361.77;287.40;;;;;;;;;;5054414;28;20090;-72
2022/12/22 08:54:51;;;;;;;335.50;283.33;;;;;;;;;;5053673;28;20039;-72
2022/12/22 08:57:16;;;;;;;311.17;252.25;;;;;;;;;;5055446;28;20032;-72
2022/12/22 08:59:41;;;;;;;327.55;249.57;;;;;;;;;;5055734;28;20047;-74
2022/12/22 09:02:07;;;;;;;337.42;256.10;;;;;;;;;;5055119;28;20024;-72
2022/12/22 09:04:32;;;;;;;309.60;227.93;;;;;;;;;;5054519;28;20028;-73
2022/12/22 09:06:58;;;;;;;264.38;196.43;;;;;;;;;;5055984;28;20055;-74
2022/12/22 09:09:23;;;;;;;208.45;149.35;;;;;;;;;;5057211;28;20359;-72
2022/12/22 09:11:49;;;;;;;160.65;114.78;;;;;;;;;;5054494;28;20027;-74
2022/12/22 09:14:14;;;;;;;96.25;75.05;;;;;;;;;;5054439;28;20031;-71
2022/12/22 09:16:40;;;;;;;98.82;76.13;;;;;;;;;;5056853;28;20504;-73
2022/12/22 09:19:05;;;;;;;97.72;77.38;;;;;;;;;;5058292;28;20482;-71
2022/12/22 09:21:32;;;;;;;91.57;69.55;;;;;;;;;;5055536;28;20401;-75
2022/12/22 09:23:58;;;;;;;89.13;66.90;;;;;;;;;;5054828;28;20429;-73
2022/12/22 09:26:24;;;;;;;127.25;104.72;;;;;;;;;;5054053;28;20028;-72
2022/12/22 09:28:50;;;;;;;136.13;111.78;;;;;;;;;;5054605;28;20061;-72
2022/12/22 09:31:15;;;;;;;116.28;95.78;;;;;;;;;;5049613;28;20033;-72
2022/12/22 09:33:41;;;;;;;143.45;108.45;;;;;;;;;;5035885;28;20035;-75
2022/12/22 09:36:07;;;;;;;125.15;100.57;;;;;;;;;;5062072;28;20024;-73
2022/12/22 09:38:32;;;;;;;103.82;83.22;;;;;;;;;;5057949;28;20031;-74
2022/12/22 09:40:57;;;;;;;93.68;72.43;;;;;;;;;;5065656;28;20044;-73
2022/12/22 09:43:29;;;;;;;78.78;64.47;;;;;;;;;;5065181;28;20024;-79
2022/12/22 09:45:54;;;;;;;65.13;49.35;;;;;;;;;;5063408;28;20112;-72
2022/12/22 09:48:20;;;;;;;69.13;48.83;;;;;;;;;;5062531;28;20166;-73
2022/12/22 09:50:46;;;;;;;41.78;35.95;;;;;;;;;;5060428;28;20029;-75
2022/12/22 09:53:17;;;;;;;29.60;24.33;;;;;;;;;;5065441;28;20054;-74
2022/12/22 09:55:44;;;;;;;44.97;39.42;;;;;;;;;;5064497;28;20027;-74
2022/12/22 09:58:14;;;;;;;35.13;31.45;;;;;;;;;;5064224;28;20028;-73
2022/12/22 10:00:40;;;;;;;37.40;31.23;;;;;;;;;;5065148;28;20486;-75
2022/12/22 10:03:08;;;;;;;158.95;120.93;;;;;;;;;;5060936;28;20214;-75
2022/12/22 10:05:55;;;;;;;85.68;72.20;;;;;;;;;;5064628;28;20035;-75
2022/12/22 10:08:26;;;;;;;56.65;48.25;;;;;;;;;;5067448;28;20016;-76
2022/12/22 10:10:55;;;;;;;43.10;36.75;;;;;;;;;;5063031;28;20543;-75
2022/12/22 10:13:20;;;;;;;30.13;26.92;;;;;;;;;;5065098;28;20039;-75
2022/12/22 10:15:46;;;;;;;27.50;24.08;;;;;;;;;;5060353;28;20032;-75
2022/12/22 10:18:13;;;;;;;32.05;27.98;;;;;;;;;;5060626;28;20033;-74
2022/12/22 10:20:39;;;;;;;31.00;27.67;;;;;;;;;;5055179;28;20501;-76
2022/12/22 10:23:13;;;;;;;34.63;30.90;;;;;;;;;;5063512;28;20021;-75
2022/12/22 10:25:49;;;;;;;44.83;39.45;;;;;;;;;;5058177;28;20439;-75
2022/12/22 10:28:19;;;;;;;33.42;29.48;;;;;;;;;;5067089;28;20025;-75
2022/12/22 10:30:45;;;;;;;39.60;35.30;;;;;;;;;;5066655;28;20036;-75
2022/12/22 10:33:12;;;;;;;46.38;40.25;;;;;;;;;;5070032;28;20430;-74
2022/12/22 10:35:49;;;;;;;51.03;44.45;;;;;;;;;;5064340;28;20037;-78
2022/12/22 10:38:14;;;;;;;40.20;35.42;;;;;;;;;;5066524;28;20024;-75
2022/12/22 10:40:45;;;;;;;23.85;20.58;;;;;;;;;;5067213;28;20113;-72
2022/12/22 10:43:17;;;;;;;16.45;14.75;;;;;;;;;;5066209;28;20428;-73
2022/12/22 10:45:45;;;;;;;32.35;25.17;;;;;;;;;;5067901;28;20039;-73
2022/12/22 10:48:11;;;;;;;21.92;19.70;;;;;;;;;;5069710;28;20086;-72
2022/12/22 10:50:43;;;;;;;149.50;123.65;;;;;;;;;;5073048;28;20024;-75
2022/12/22 10:53:08;;;;;;;44.65;40.13;;;;;;;;;;5064817;28;20039;-73
2022/12/22 10:55:34;;;;;;;169.68;144.98;;;;;;;;;;5067819;28;20375;-75
2022/12/22 10:58:09;;;;;;;28.25;24.33;;;;;;;;;;5068683;28;20024;-72
2022/12/22 11:00:35;;;;;;;37.55;30.13;;;;;;;;;;5068846;28;20379;-72
2022/12/22 11:03:01;;;;;;;16.85;14.85;;;;;;;;;;5068264;28;20027;-73
2022/12/22 11:05:27;;;;;;;20.35;18.33;;;;;;;;;;5065599;28;20032;-73
2022/12/22 11:07:52;;;;;;;14.10;12.68;;;;;;;;;;5066555;28;20222;-73
2022/12/22 11:10:30;;;;;;;17.60;15.75;;;;;;;;;;5068153;28;20450;-73
2022/12/22 11:12:55;;;;;;;21.85;18.33;;;;;;;;;;5064437;28;20016;-72
2022/12/22 11:15:27;;;;;;;35.60;30.05;;;;;;;;;;5049687;28;20039;-72
2022/12/22 11:17:52;;;;;;;61.22;53.67;;;;;;;;;;5070865;28;20020;-73
2022/12/22 11:20:23;;;;;;;16.85;14.85;;;;;;;;;;5065444;28;20040;-75
2022/12/22 11:22:54;;;;;;;30.88;26.65;;;;;;;;;;5067160;28;20466;-75
2022/12/22 11:25:29;;;;;;;24.98;22.17;;;;;;;;;;5066694;28;20117;-72
2022/12/22 11:28:12;;;;;;;37.92;32.53;;;;;;;;;;5066653;28;20064;-72
2022/12/22 11:30:53;;;;;;;36.03;31.00;;;;;;;;;;5064138;28;20443;-73
2022/12/22 11:33:23;;;;;;;33.13;28.30;;;;;;;;;;5064806;28;20048;-72
2022/12/22 11:36:08;;;;;;;37.72;33.80;;;;;;;;;;5066680;28;20027;-72
2022/12/22 11:38:47;;;;;;;31.20;24.02;;;;;;;;;;5065744;28;20024;-75
2022/12/22 11:41:15;;;;;;;30.73;23.67;;;;;;;;;;5067019;28;20589;-74
2022/12/22 11:43:43;;;;;;;30.30;23.95;;;;;;;;;;5066042;28;20064;-72
2022/12/22 11:46:18;;;;;;;18.08;15.95;;;;;;;;;;5066825;28;20111;-73
2022/12/22 11:48:53;;;;;;;23.73;17.58;;;;;;;;;;5065506;28;20024;-72
2022/12/22 11:51:18;;;;;;;28.58;19.10;;;;;;;;;;5065546;28;20516;-71
2022/12/22 11:53:46;;;;;;;20.10;17.33;;;;;;;;;;5067257;28;20112;-72
2022/12/22 11:56:28;;;;;;;22.50;17.30;;;;;;;;;;5069531;28;20024;-73
2022/12/22 11:59:09;;;;;;;39.03;25.77;;;;;;;;;;5067561;28;20029;-72
2022/12/22 12:01:45;;;;;;;22.60;16.63;;;;;;;;;;5064740;28;20089;-73
2022/12/22 12:04:21;;;;;;;22.70;15.73;;;;;;;;;;5063441;28;20352;-72
2022/12/22 12:07:07;;;;;;;18.23;13.75;;;;;;;;;;5054891;28;20056;-71
2022/12/22 12:09:33;;;;;;;32.33;23.55;;;;;;;;;;5068108;28;20027;-73
2022/12/22 12:12:07;;;;;;;21.85;18.30;;;;;;;;;;5063597;28;20025;-72
2022/12/22 12:14:38;;;;;;;21.20;17.90;;;;;;;;;;5069630;28;20028;-74
2022/12/22 12:17:06;;;;;;;20.50;16.83;;;;;;;;;;5068649;28;20446;-71
2022/12/22 12:19:42;;;;;;;15.65;13.05;;;;;;;;;;5070250;28;20135;-71
2022/12/22 12:22:13;;;;;;;21.58;17.58;;;;;;;;;;5055807;28;20333;-71
2022/12/22 12:24:49;;;;;;;21.63;17.55;;;;;;;;;;5046689;28;20032;-72
2022/12/22 12:27:33;;;;;;;26.52;22.30;;;;;;;;;;5067763;28;20029;-73
2022/12/22 12:30:10;;;;;;;24.80;22.08;;;;;;;;;;5063881;28;20033;-73
2022/12/22 12:32:53;;;;;;;21.58;19.08;;;;;;;;;;5067138;28;20447;-74
2022/12/22 12:35:22;;;;;;;34.03;27.48;;;;;;;;;;5067682;28;20062;-73
2022/12/22 12:37:49;;;;;;;22.23;16.17;;;;;;;;;;5067188;28;20116;-74
2022/12/22 12:40:46;;;;;;;43.53;27.55;;;;;;;;;;5067189;28;20052;-74
2022/12/22 12:43:13;;;;;;;39.88;29.73;;;;;;;;;;5013071;28;20038;-73
2022/12/22 12:45:40;;;;;;;23.20;18.88;;;;;;;;;;5012728;28;20415;-73
2022/12/22 12:48:20;;;;;;;47.35;31.10;;;;;;;;;;5013054;28;20432;-73
2022/12/22 12:50:46;;;;;;;66.38;44.70;;;;;;;;;;5012198;28;20038;-75
2022/12/22 12:53:12;;;;;;;74.07;44.80;;;;;;;;;;5014157;28;20075;-75
2022/12/22 12:55:37;;;;;;;60.28;46.40;;;;;;;;;;5013167;28;20144;-72
2022/12/22 12:58:04;;;;;;;46.95;34.25;;;;;;;;;;5011989;28;20033;-71
2022/12/22 13:00:32;;;;;;;50.80;37.78;;;;;;;;;;5014458;28;20054;-72
2022/12/22 13:03:06;;;;;;;28.60;22.13;;;;;;;;;;5015513;28;20069;-73
2022/12/22 13:05:32;;;;;;;36.63;21.58;;;;;;;;;;5009804;28;20053;-72
2022/12/22 13:08:17;;;;;;;22.58;16.45;;;;;;;;;;5014725;28;20032;-72
2022/12/22 13:10:45;;;;;;;31.23;23.13;;;;;;;;;;5014040;28;20438;-72
2022/12/22 13:13:12;;;;;;;22.38;19.80;;;;;;;;;;5012609;28;20045;-71
2022/12/22 13:15:41;;;;;;;30.23;22.92;;;;;;;;;;5014649;28;20174;-74
2022/12/22 13:18:30;;;;;;;31.77;27.85;;;;;;;;;;5024360;28;20047;-71
2022/12/22 13:20:58;;;;;;;25.55;18.45;;;;;;;;;;5045628;28;20465;-72
2022/12/22 13:23:27;;;;;;;34.70;29.60;;;;;;;;;;5066209;28;20024;-72
2022/12/22 13:25:57;;;;;;;41.15;35.40;;;;;;;;;;5067632;28;20085;-77
2022/12/22 13:28:24;;;;;;;37.55;27.70;;;;;;;;;;5066625;28;20020;-75
2022/12/22 13:30:51;;;;;;;34.20;20.35;;;;;;;;;;5064991;28;20036;-71
2022/12/22 13:33:19;;;;;;;30.17;20.40;;;;;;;;;;5066059;28;20052;-73
2022/12/22 13:35:46;;;;;;;63.67;42.20;;;;;;;;;;5065609;28;20020;-73
2022/12/22 13:38:29;;;;;;;125.68;83.20;;;;;;;;;;5067398;28;20021;-71
2022/12/22 13:40:55;;;;;;;90.35;65.88;;;;;;;;;;5067992;28;20067;-72
2022/12/22 13:43:20;;;;;;;51.60;39.15;;;;;;;;;;5066302;28;20424;-73
2022/12/22 13:45:49;;;;;;;63.72;42.63;;;;;;;;;;5063061;28;20043;-72
2022/12/22 13:48:17;;;;;;;42.42;28.40;;;;;;;;;;5064079;28;20068;-71
2022/12/22 13:51:02;;;;;;;60.30;46.40;;;;;;;;;;5066891;28;20032;-72
2022/12/22 13:53:42;;;;;;;58.08;46.60;;;;;;;;;;5069232;28;20487;-72
2022/12/22 13:56:10;;;;;;;61.08;50.92;;;;;;;;;;5060090;28;20428;-71
2022/12/22 13:58:38;;;;;;;54.58;39.90;;;;;;;;;;5064263;28;20031;-72
2022/12/22 14:01:14;;;;;;;45.55;39.92;;;;;;;;;;5065325;28;20059;-72
2022/12/22 14:03:47;;;;;;;73.97;57.85;;;;;;;;;;5071864;28;20031;-73
2022/12/22 14:06:19;;;;;;;65.25;47.55;;;;;;;;;;5067449;28;20475;-74
2022/12/22 14:08:44;;;;;;;114.90;86.18;;;;;;;;;;5060784;28;20048;-72
2022/12/22 14:11:09;;;;;;;121.70;89.88;;;;;;;;;;5056243;28;20136;-72
2022/12/22 14:13:38;;;;;;;52.13;43.10;;;;;;;;;;5070591;28;20056;-72
2022/12/22 14:16:04;;;;;;;33.03;29.42;;;;;;;;;;5070315;28;20028;-73
2022/12/22 14:18:30;;;;;;;38.88;29.92;;;;;;;;;;5066836;28;20086;-72
2022/12/22 14:20:56;;;;;;;37.03;27.85;;;;;;;;;;5073490;28;20039;-74
2022/12/22 14:23:23;;;;;;;64.60;42.67;;;;;;;;;;5070033;28;20497;-72
2022/12/22 14:25:49;;;;;;;75.55;53.88;;;;;;;;;;5069366;28;20033;-72
2022/12/22 14:28:18;;;;;;;66.75;48.97;;;;;;;;;;5068645;28;20727;-72
2022/12/22 14:30:45;;;;;;;68.05;46.92;;;;;;;;;;5070467;28;20032;-73
2022/12/22 14:33:15;;;;;;;80.00;57.50;;;;;;;;;;5072703;28;20047;-73
2022/12/22 14:35:41;;;;;;;60.13;50.78;;;;;;;;;;5069364;28;20118;-72
2022/12/22 14:38:15;;;;;;;62.90;49.95;;;;;;;;;;5065565;28;20024;-73
2022/12/22 14:40:41;;;;;;;68.30;42.42;;;;;;;;;;5069305;28;20079;-74
2022/12/22 14:43:16;;;;;;;34.80;26.35;;;;;;;;;;5069133;28;20026;-75
2022/12/22 14:45:41;;;;;;;42.60;31.58;;;;;;;;;;5073049;28;20021;-75
2022/12/22 14:48:07;;;;;;;37.35;28.60;;;;;;;;;;5073161;28;20039;-71
2022/12/22 14:50:33;;;;;;;31.17;23.30;;;;;;;;;;5075924;28;20025;-71
2022/12/22 14:52:59;;;;;;;41.58;27.67;;;;;;;;;;5072804;28;20420;-73
2022/12/22 14:55:34;;;;;;;26.83;21.80;;;;;;;;;;5074020;28;20107;-72
2022/12/22 14:59:21;;;;;;;65.15;54.97;;;;;;;;;;5115348;27;20403;-72
2022/12/22 15:02:15;;;;;;;88.47;68.72;;;;;;;;;;5092220;28;20023;-77
2022/12/22 15:04:41;;;;;;;110.50;86.00;;;;;;;;;;5055458;28;20037;-73
2022/12/22 15:07:15;;;;;;;87.32;66.32;;;;;;;;;;5054847;28;20115;-72
2022/12/22 15:09:40;;;;;;;69.55;54.25;;;;;;;;;;5048897;28;21028;-71
2022/12/22 15:12:09;;;;;;;80.90;63.78;;;;;;;;;;5054149;28;20116;-73
2022/12/22 15:14:35;;;;;;;86.22;71.20;;;;;;;;;;5056012;28;20028;-72
2022/12/22 15:17:01;;;;;;;63.22;49.78;;;;;;;;;;5057019;28;20055;-71
2022/12/22 15:19:31;;;;;;;60.92;51.17;;;;;;;;;;5052570;28;20621;-73
2022/12/22 15:21:56;;;;;;;64.70;53.90;;;;;;;;;;5045610;28;20036;-72
2022/12/22 15:24:22;;;;;;;54.97;46.05;;;;;;;;;;5052342;28;20094;-72
2022/12/22 15:26:47;;;;;;;43.78;36.65;;;;;;;;;;5042161;28;20024;-74
2022/12/22 15:29:13;;;;;;;34.78;28.13;;;;;;;;;;5042403;28;20131;-72
2022/12/22 15:31:38;;;;;;;59.45;47.95;;;;;;;;;;5042565;28;20174;-73
2022/12/22 15:34:09;;;;;;;214.27;153.75;;;;;;;;;;5045043;28;20479;-72
2022/12/22 15:36:35;;;;;;;329.92;233.75;;;;;;;;;;5042185;28;20028;-71
2022/12/22 15:39:00;;;;;;;181.75;136.38;;;;;;;;;;5043224;28;20444;-73
2022/12/22 15:41:25;;;;;;;334.98;241.10;;;;;;;;;;5061581;28;20483;-72
2022/12/22 15:43:51;;;;;;;171.57;134.02;;;;;;;;;;5073006;28;20012;-72
2022/12/22 15:46:17;;;;;;;162.50;131.23;;;;;;;;;;5070671;28;20111;-74
2022/12/22 15:48:44;;;;;;;158.38;123.07;;;;;;;;;;5077998;28;20038;-72
2022/12/22 15:51:16;;;;;;;220.50;182.43;;;;;;;;;;5075148;28;20054;-73
2022/12/22 15:53:42;;;;;;;205.98;177.05;;;;;;;;;;5074817;28;20107;-72
2022/12/22 15:56:11;;;;;;;89.53;71.55;;;;;;;;;;5072107;28;20123;-72
2022/12/22 15:58:36;;;;;;;119.33;99.40;;;;;;;;;;5072933;28;20056;-73
2022/12/22 16:01:01;;;;;;;56.20;46.72;;;;;;;;;;5072308;28;20743;-72
2022/12/22 16:03:27;;;;;;;90.40;72.65;;;;;;;;;;5073847;28;20107;-73
2022/12/22 16:05:53;;;;;;;58.55;47.80;;;;;;;;;;5074422;28;20059;-74
2022/12/22 16:08:26;;;;;;;85.43;63.45;;;;;;;;;;5073464;28;20028;-73
2022/12/22 16:10:51;;;;;;;94.93;75.93;;;;;;;;;;5057177;28;20438;-73
2022/12/22 16:13:18;;;;;;;320.33;219.68;;;;;;;;;;5057792;28;20028;-74
2022/12/22 16:15:43;;;;;;;290.02;204.50;;;;;;;;;;5056133;28;20035;-71
2022/12/22 16:18:09;;;;;;;132.77;100.57;;;;;;;;;;5056246;28;20020;-72
2022/12/22 16:20:36;;;;;;;96.03;74.60;;;;;;;;;;5060529;28;20366;-72
2022/12/22 16:23:03;;;;;;;57.35;45.03;;;;;;;;;;5062130;28;20033;-76
2022/12/22 16:25:35;;;;;;;52.85;43.60;;;;;;;;;;5057494;28;20021;-74
2022/12/22 16:28:01;;;;;;;54.97;46.35;;;;;;;;;;5063058;28;20130;-74
2022/12/22 16:30:28;;;;;;;423.27;321.65;;;;;;;;;;5068411;28;20108;-74
2022/12/22 16:32:53;;;;;;;281.75;199.25;;;;;;;;;;5070844;28;20029;-74
2022/12/22 16:35:20;;;;;;;134.73;98.15;;;;;;;;;;5057247;28;20053;-75
2022/12/22 16:37:47;;;;;;;93.60;71.05;;;;;;;;;;5061437;28;20036;-74
2022/12/22 16:40:13;;;;;;;99.88;75.85;;;;;;;;;;5063715;28;20635;-74
2022/12/22 16:42:39;;;;;;;113.10;88.90;;;;;;;;;;5060668;28;20587;-74
2022/12/22 16:45:12;;;;;;;65.45;53.72;;;;;;;;;;5068375;28;20039;-74
2022/12/22 16:47:38;;;;;;;114.15;91.32;;;;;;;;;;5065036;28;20119;-74
2022/12/22 16:50:05;;;;;;;215.73;165.15;;;;;;;;;;5067220;28;20116;-75
2022/12/22 16:52:35;;;;;;;210.65;151.57;;;;;;;;;;5067842;28;20028;-73
2022/12/22 16:55:01;;;;;;;189.23;143.63;;;;;;;;;;5067876;28;20043;-73
2022/12/22 16:57:26;;;;;;;251.27;187.38;;;;;;;;;;5067308;28;20041;-72
2022/12/22 16:59:51;;;;;;;144.32;107.55;;;;;;;;;;5068976;28;20024;-72
2022/12/22 17:02:21;;;;;;;137.48;104.82;;;;;;;;;;5065069;28;20095;-73
2022/12/22 17:04:46;;;;;;;87.50;69.22;;;;;;;;;;5065402;28;20448;-73
2022/12/22 17:07:12;;;;;;;139.55;107.10;;;;;;;;;;5065618;28;20047;-73
2022/12/22 17:09:48;;;;;;;134.50;108.80;;;;;;;;;;5063829;28;20020;-73
2022/12/22 17:12:17;;;;;;;203.57;156.05;;;;;;;;;;5065538;28;20111;-73
2022/12/22 17:14:43;;;;;;;263.23;198.38;;;;;;;;;;5067315;28;20074;-73
2022/12/22 17:17:21;;;;;;;200.05;148.98;;;;;;;;;;5065916;28;20048;-73
2022/12/22 17:19:47;;;;;;;196.45;145.00;;;;;;;;;;5066491;28;20074;-75
2022/12/22 17:22:18;;;;;;;187.95;149.25;;;;;;;;;;5063019;28;20021;-72
2022/12/22 17:24:44;;;;;;;170.45;136.57;;;;;;;;;;5064421;28;20021;-73
2022/12/22 17:27:10;;;;;;;149.75;118.43;;;;;;;;;;5062508;28;20039;-72
2022/12/22 17:29:36;;;;;;;124.43;100.78;;;;;;;;;;5066674;28;20035;-73
2022/12/22 17:32:01;;;;;;;166.60;129.93;;;;;;;;;;5064934;28;20359;-73
2022/12/22 17:34:26;;;;;;;352.25;186.95;;;;;;;;;;5066890;28;20032;-72
2022/12/22 17:36:54;;;;;;;174.25;105.55;;;;;;;;;;5066085;28;20020;-73
2022/12/22 17:39:21;;;;;;;200.95;137.35;;;;;;;;;;5063904;28;20024;-73
2022/12/22 17:41:46;;;;;;;240.27;178.65;;;;;;;;;;5064662;28;20031;-72
2022/12/22 17:44:14;;;;;;;313.58;230.88;;;;;;;;;;5068391;28;20027;-73
2022/12/22 17:46:39;;;;;;;205.93;153.95;;;;;;;;;;5067094;28;20109;-72
2022/12/22 17:49:04;;;;;;;219.60;169.80;;;;;;;;;;5066570;28;20036;-72
2022/12/22 17:51:29;;;;;;;256.15;187.95;;;;;;;;;;5065638;28;20534;-73